sensor_id;sensor_type;location;lat;lon;timestamp;P1;durP1;ratioP1;P2;durP2;ratioP2
14736;SDS011;7459;53.590;10.062;2023-12-20T00:01:21;12.63;;;1.27;;
14736;SDS011;7459;53.590;10.062;2023-12-20T00:03:47;10.60;;;0.85;;
14736;SDS011;7459;53.590;10.062;2023-12-20T00:06:13;9.35;;;1.60;;
14736;SDS011;7459;53.590;10.062;2023-12-20T00:08:39;10.70;;;1.40;;
14736;SDS011;7459;53.590;10.062;2023-12-20T00:11:04;9.50;;;1.05;;
14736;SDS011;7459;53.590;10.062;2023-12-20T00:13:30;6.32;;;0.95;;
14736;SDS011;7459;53.590;10.062;2023-12-20T00:15:56;12.43;;;1.30;;
14736;SDS011;7459;53.590;10.062;2023-12-20T00:18:21;9.97;;;1.37;;
14736;SDS011;7459;53.590;10.062;2023-12-20T00:20:48;12.23;;;1.52;;
14736;SDS011;7459;53.590;10.062;2023-12-20T00:23:13;9.15;;;0.65;;
14736;SDS011;7459;53.590;10.062;2023-12-20T00:25:39;12.87;;;1.70;;
14736;SDS011;7459;53.590;10.062;2023-12-20T00:28:05;12.82;;;1.05;;
14736;SDS011;7459;53.590;10.062;2023-12-20T00:30:31;10.07;;;1.00;;
14736;SDS011;7459;53.590;10.062;2023-12-20T00:32:57;8.43;;;0.60;;
14736;SDS011;7459;53.590;10.062;2023-12-20T00:35:23;11.97;;;1.80;;
14736;SDS011;7459;53.590;10.062;2023-12-20T00:37:49;15.98;;;1.15;;
14736;SDS011;7459;53.590;10.062;2023-12-20T00:40:14;8.73;;;0.90;;
14736;SDS011;7459;53.590;10.062;2023-12-20T00:42:40;8.67;;;1.03;;
14736;SDS011;7459;53.590;10.062;2023-12-20T00:45:06;14.80;;;1.42;;
14736;SDS011;7459;53.590;10.062;2023-12-20T00:47:32;8.60;;;0.90;;
14736;SDS011;7459;53.590;10.062;2023-12-20T00:49:58;12.10;;;0.90;;
14736;SDS011;7459;53.590;10.062;2023-12-20T00:52:24;7.88;;;0.95;;
14736;SDS011;7459;53.590;10.062;2023-12-20T00:54:50;14.75;;;1.80;;
14736;SDS011;7459;53.590;10.062;2023-12-20T00:57:16;5.57;;;0.82;;
14736;SDS011;7459;53.590;10.062;2023-12-20T00:59:41;11.13;;;1.13;;
14736;SDS011;7459;53.590;10.062;2023-12-20T01:02:07;10.33;;;0.70;;
14736;SDS011;7459;53.590;10.062;2023-12-20T01:04:34;6.93;;;1.17;;
14736;SDS011;7459;53.590;10.062;2023-12-20T01:06:59;7.75;;;0.93;;
14736;SDS011;7459;53.590;10.062;2023-12-20T01:09:25;7.43;;;0.90;;
14736;SDS011;7459;53.590;10.062;2023-12-20T01:11:53;11.90;;;1.30;;
14736;SDS011;7459;53.590;10.062;2023-12-20T01:14:19;9.43;;;1.17;;
14736;SDS011;7459;53.590;10.062;2023-12-20T01:16:45;8.35;;;0.80;;
14736;SDS011;7459;53.590;10.062;2023-12-20T01:19:11;8.63;;;1.35;;
14736;SDS011;7459;53.590;10.062;2023-12-20T01:21:38;6.53;;;0.80;;
14736;SDS011;7459;53.590;10.062;2023-12-20T01:24:04;9.40;;;1.17;;
14736;SDS011;7459;53.590;10.062;2023-12-20T01:26:30;8.30;;;0.80;;
14736;SDS011;7459;53.590;10.062;2023-12-20T01:28:56;11.60;;;0.83;;
14736;SDS011;7459;53.590;10.062;2023-12-20T01:31:21;8.52;;;0.93;;
14736;SDS011;7459;53.590;10.062;2023-12-20T01:33:47;8.55;;;0.85;;
14736;SDS011;7459;53.590;10.062;2023-12-20T01:36:13;8.07;;;1.07;;
14736;SDS011;7459;53.590;10.062;2023-12-20T01:38:38;9.65;;;1.05;;
14736;SDS011;7459;53.590;10.062;2023-12-20T01:41:04;13.30;;;0.80;;
14736;SDS011;7459;53.590;10.062;2023-12-20T01:43:30;15.27;;;1.10;;
14736;SDS011;7459;53.590;10.062;2023-12-20T01:45:55;9.20;;;0.90;;
14736;SDS011;7459;53.590;10.062;2023-12-20T01:48:22;13.40;;;0.98;;
14736;SDS011;7459;53.590;10.062;2023-12-20T01:50:49;11.43;;;1.23;;
14736;SDS011;7459;53.590;10.062;2023-12-20T01:53:16;11.20;;;0.80;;
14736;SDS011;7459;53.590;10.062;2023-12-20T01:55:44;10.45;;;1.00;;
14736;SDS011;7459;53.590;10.062;2023-12-20T01:58:10;9.68;;;0.80;;
14736;SDS011;7459;53.590;10.062;2023-12-20T02:00:37;12.13;;;1.45;;
14736;SDS011;7459;53.590;10.062;2023-12-20T02:03:03;12.13;;;1.30;;
14736;SDS011;7459;53.590;10.062;2023-12-20T02:05:30;8.82;;;0.68;;
14736;SDS011;7459;53.590;10.062;2023-12-20T02:07:56;14.98;;;1.13;;
14736;SDS011;7459;53.590;10.062;2023-12-20T02:10:22;7.50;;;1.10;;
14736;SDS011;7459;53.590;10.062;2023-12-20T02:12:48;13.45;;;1.35;;
14736;SDS011;7459;53.590;10.062;2023-12-20T02:15:14;11.50;;;1.27;;
14736;SDS011;7459;53.590;10.062;2023-12-20T02:17:40;7.45;;;0.80;;
14736;SDS011;7459;53.590;10.062;2023-12-20T02:20:06;7.47;;;1.00;;
14736;SDS011;7459;53.590;10.062;2023-12-20T02:22:32;10.35;;;0.73;;
14736;SDS011;7459;53.590;10.062;2023-12-20T02:24:57;12.68;;;1.05;;
14736;SDS011;7459;53.590;10.062;2023-12-20T02:27:23;7.10;;;0.70;;
14736;SDS011;7459;53.590;10.062;2023-12-20T02:29:49;10.50;;;1.13;;
14736;SDS011;7459;53.590;10.062;2023-12-20T02:32:16;5.50;;;0.82;;
14736;SDS011;7459;53.590;10.062;2023-12-20T02:34:49;10.32;;;1.17;;
14736;SDS011;7459;53.590;10.062;2023-12-20T02:37:14;13.02;;;1.52;;
14736;SDS011;7459;53.590;10.062;2023-12-20T02:39:40;8.13;;;1.13;;
14736;SDS011;7459;53.590;10.062;2023-12-20T02:42:06;4.43;;;0.80;;
14736;SDS011;7459;53.590;10.062;2023-12-20T02:44:32;5.78;;;0.55;;
14736;SDS011;7459;53.590;10.062;2023-12-20T02:46:58;10.33;;;1.17;;
14736;SDS011;7459;53.590;10.062;2023-12-20T02:49:23;9.48;;;1.10;;
14736;SDS011;7459;53.590;10.062;2023-12-20T02:51:49;10.27;;;1.53;;
14736;SDS011;7459;53.590;10.062;2023-12-20T02:54:15;4.53;;;0.77;;
14736;SDS011;7459;53.590;10.062;2023-12-20T02:56:41;7.45;;;0.70;;
14736;SDS011;7459;53.590;10.062;2023-12-20T03:02:21;9.25;;;0.77;;
14736;SDS011;7459;53.590;10.062;2023-12-20T03:04:47;7.37;;;0.80;;
14736;SDS011;7459;53.590;10.062;2023-12-20T03:07:12;7.35;;;1.23;;
14736;SDS011;7459;53.590;10.062;2023-12-20T03:09:38;7.47;;;0.93;;
14736;SDS011;7459;53.590;10.062;2023-12-20T03:12:04;9.25;;;1.02;;
14736;SDS011;7459;53.590;10.062;2023-12-20T03:14:29;7.90;;;1.43;;
14736;SDS011;7459;53.590;10.062;2023-12-20T03:16:55;4.75;;;0.70;;
14736;SDS011;7459;53.590;10.062;2023-12-20T03:19:21;13.40;;;0.57;;
14736;SDS011;7459;53.590;10.062;2023-12-20T03:21:47;12.90;;;1.02;;
14736;SDS011;7459;53.590;10.062;2023-12-20T03:24:13;7.95;;;1.52;;
14736;SDS011;7459;53.590;10.062;2023-12-20T03:26:38;7.50;;;1.20;;
14736;SDS011;7459;53.590;10.062;2023-12-20T03:29:04;9.43;;;1.17;;
14736;SDS011;7459;53.590;10.062;2023-12-20T03:31:30;5.60;;;1.07;;
14736;SDS011;7459;53.590;10.062;2023-12-20T03:33:55;13.73;;;1.57;;
14736;SDS011;7459;53.590;10.062;2023-12-20T03:36:21;10.95;;;1.45;;
14736;SDS011;7459;53.590;10.062;2023-12-20T03:38:47;10.67;;;1.13;;
14736;SDS011;7459;53.590;10.062;2023-12-20T03:41:12;10.65;;;1.17;;
14736;SDS011;7459;53.590;10.062;2023-12-20T03:43:38;7.55;;;1.00;;
14736;SDS011;7459;53.590;10.062;2023-12-20T03:46:04;8.85;;;1.83;;
14736;SDS011;7459;53.590;10.062;2023-12-20T03:48:30;4.22;;;0.70;;
14736;SDS011;7459;53.590;10.062;2023-12-20T03:50:56;17.42;;;1.50;;
14736;SDS011;7459;53.590;10.062;2023-12-20T03:53:22;10.27;;;1.50;;
14736;SDS011;7459;53.590;10.062;2023-12-20T03:55:48;9.73;;;0.90;;
14736;SDS011;7459;53.590;10.062;2023-12-20T03:58:13;9.93;;;1.02;;
14736;SDS011;7459;53.590;10.062;2023-12-20T04:00:39;8.60;;;1.10;;
14736;SDS011;7459;53.590;10.062;2023-12-20T04:03:05;8.93;;;1.65;;
14736;SDS011;7459;53.590;10.062;2023-12-20T04:05:30;5.30;;;1.23;;
14736;SDS011;7459;53.590;10.062;2023-12-20T04:07:56;7.68;;;1.25;;
14736;SDS011;7459;53.590;10.062;2023-12-20T04:10:22;8.15;;;0.85;;
14736;SDS011;7459;53.590;10.062;2023-12-20T04:12:48;10.10;;;1.38;;
14736;SDS011;7459;53.590;10.062;2023-12-20T04:15:14;7.73;;;0.83;;
14736;SDS011;7459;53.590;10.062;2023-12-20T04:17:39;8.50;;;1.55;;
14736;SDS011;7459;53.590;10.062;2023-12-20T04:20:05;9.00;;;1.10;;
14736;SDS011;7459;53.590;10.062;2023-12-20T04:22:32;5.68;;;1.05;;
14736;SDS011;7459;53.590;10.062;2023-12-20T04:24:57;7.38;;;1.10;;
14736;SDS011;7459;53.590;10.062;2023-12-20T04:27:23;14.77;;;1.75;;
14736;SDS011;7459;53.590;10.062;2023-12-20T04:29:49;7.37;;;1.00;;
14736;SDS011;7459;53.590;10.062;2023-12-20T04:32:14;6.80;;;1.05;;
14736;SDS011;7459;53.590;10.062;2023-12-20T04:34:40;10.10;;;1.60;;
14736;SDS011;7459;53.590;10.062;2023-12-20T04:37:06;10.25;;;1.48;;
14736;SDS011;7459;53.590;10.062;2023-12-20T04:39:31;6.97;;;0.90;;
14736;SDS011;7459;53.590;10.062;2023-12-20T04:41:58;4.57;;;0.60;;
14736;SDS011;7459;53.590;10.062;2023-12-20T04:44:23;6.80;;;1.03;;
14736;SDS011;7459;53.590;10.062;2023-12-20T04:46:49;7.03;;;0.77;;
14736;SDS011;7459;53.590;10.062;2023-12-20T04:49:15;8.20;;;1.33;;
14736;SDS011;7459;53.590;10.062;2023-12-20T04:51:41;8.57;;;0.90;;
14736;SDS011;7459;53.590;10.062;2023-12-20T04:54:06;5.10;;;0.77;;
14736;SDS011;7459;53.590;10.062;2023-12-20T04:56:32;11.57;;;1.10;;
14736;SDS011;7459;53.590;10.062;2023-12-20T04:58:58;12.83;;;1.60;;
14736;SDS011;7459;53.590;10.062;2023-12-20T05:01:23;10.75;;;1.60;;
14736;SDS011;7459;53.590;10.062;2023-12-20T05:03:49;4.47;;;1.33;;
14736;SDS011;7459;53.590;10.062;2023-12-20T05:06:15;8.27;;;1.25;;
14736;SDS011;7459;53.590;10.062;2023-12-20T05:08:40;8.60;;;1.35;;
14736;SDS011;7459;53.590;10.062;2023-12-20T05:11:06;11.63;;;1.87;;
14736;SDS011;7459;53.590;10.062;2023-12-20T05:13:32;15.45;;;1.40;;
14736;SDS011;7459;53.590;10.062;2023-12-20T05:15:57;8.93;;;1.03;;
14736;SDS011;7459;53.590;10.062;2023-12-20T05:18:23;16.88;;;4.00;;
14736;SDS011;7459;53.590;10.062;2023-12-20T05:20:49;7.13;;;1.10;;
14736;SDS011;7459;53.590;10.062;2023-12-20T05:23:16;15.13;;;1.83;;
14736;SDS011;7459;53.590;10.062;2023-12-20T05:25:42;8.65;;;1.45;;
14736;SDS011;7459;53.590;10.062;2023-12-20T05:28:08;6.73;;;1.37;;
14736;SDS011;7459;53.590;10.062;2023-12-20T05:30:34;6.60;;;1.10;;
14736;SDS011;7459;53.590;10.062;2023-12-20T05:32:59;6.03;;;1.30;;
14736;SDS011;7459;53.590;10.062;2023-12-20T05:35:25;14.48;;;1.42;;
14736;SDS011;7459;53.590;10.062;2023-12-20T05:37:51;7.55;;;1.70;;
14736;SDS011;7459;53.590;10.062;2023-12-20T05:40:20;9.23;;;1.52;;
14736;SDS011;7459;53.590;10.062;2023-12-20T05:42:45;10.15;;;1.42;;
14736;SDS011;7459;53.590;10.062;2023-12-20T05:45:11;7.60;;;0.93;;
14736;SDS011;7459;53.590;10.062;2023-12-20T05:47:37;8.52;;;1.30;;
14736;SDS011;7459;53.590;10.062;2023-12-20T05:50:03;7.67;;;1.37;;
14736;SDS011;7459;53.590;10.062;2023-12-20T05:52:29;12.82;;;1.92;;
14736;SDS011;7459;53.590;10.062;2023-12-20T05:54:55;12.05;;;1.50;;
14736;SDS011;7459;53.590;10.062;2023-12-20T05:57:22;10.70;;;1.75;;
14736;SDS011;7459;53.590;10.062;2023-12-20T05:59:48;13.10;;;1.40;;
14736;SDS011;7459;53.590;10.062;2023-12-20T06:02:14;13.70;;;1.80;;
14736;SDS011;7459;53.590;10.062;2023-12-20T06:04:42;9.27;;;2.00;;
14736;SDS011;7459;53.590;10.062;2023-12-20T06:07:08;6.40;;;1.02;;
14736;SDS011;7459;53.590;10.062;2023-12-20T06:09:36;11.77;;;1.17;;
14736;SDS011;7459;53.590;10.062;2023-12-20T06:12:02;14.20;;;1.40;;
14736;SDS011;7459;53.590;10.062;2023-12-20T06:14:28;9.40;;;1.35;;
14736;SDS011;7459;53.590;10.062;2023-12-20T06:16:55;12.10;;;1.60;;
14736;SDS011;7459;53.590;10.062;2023-12-20T06:19:22;6.43;;;1.17;;
14736;SDS011;7459;53.590;10.062;2023-12-20T06:21:48;17.67;;;2.30;;
14736;SDS011;7459;53.590;10.062;2023-12-20T06:24:13;9.25;;;1.50;;
14736;SDS011;7459;53.590;10.062;2023-12-20T06:26:39;7.22;;;1.20;;
14736;SDS011;7459;53.590;10.062;2023-12-20T06:29:05;9.47;;;0.90;;
14736;SDS011;7459;53.590;10.062;2023-12-20T06:31:30;11.65;;;1.88;;
14736;SDS011;7459;53.590;10.062;2023-12-20T06:33:58;12.10;;;1.40;;
14736;SDS011;7459;53.590;10.062;2023-12-20T06:36:24;12.93;;;1.52;;
14736;SDS011;7459;53.590;10.062;2023-12-20T06:38:51;13.70;;;1.70;;
14736;SDS011;7459;53.590;10.062;2023-12-20T06:41:17;9.38;;;1.55;;
14736;SDS011;7459;53.590;10.062;2023-12-20T06:43:43;12.40;;;1.20;;
14736;SDS011;7459;53.590;10.062;2023-12-20T06:46:09;8.38;;;1.48;;
14736;SDS011;7459;53.590;10.062;2023-12-20T06:48:35;7.72;;;1.23;;
14736;SDS011;7459;53.590;10.062;2023-12-20T06:51:01;8.53;;;1.63;;
14736;SDS011;7459;53.590;10.062;2023-12-20T06:53:27;11.80;;;1.35;;
14736;SDS011;7459;53.590;10.062;2023-12-20T06:55:53;7.30;;;0.82;;
14736;SDS011;7459;53.590;10.062;2023-12-20T06:58:21;8.57;;;1.20;;
14736;SDS011;7459;53.590;10.062;2023-12-20T07:00:47;12.00;;;1.40;;
14736;SDS011;7459;53.590;10.062;2023-12-20T07:03:13;10.23;;;1.52;;
14736;SDS011;7459;53.590;10.062;2023-12-20T07:05:39;15.17;;;1.53;;
14736;SDS011;7459;53.590;10.062;2023-12-20T07:08:05;10.15;;;1.40;;
14736;SDS011;7459;53.590;10.062;2023-12-20T07:10:31;8.45;;;1.10;;
14736;SDS011;7459;53.590;10.062;2023-12-20T07:12:57;9.82;;;1.23;;
14736;SDS011;7459;53.590;10.062;2023-12-20T07:15:23;8.37;;;1.00;;
14736;SDS011;7459;53.590;10.062;2023-12-20T07:17:49;10.95;;;1.30;;
14736;SDS011;7459;53.590;10.062;2023-12-20T07:20:15;9.40;;;1.33;;
14736;SDS011;7459;53.590;10.062;2023-12-20T07:22:40;9.00;;;0.85;;
14736;SDS011;7459;53.590;10.062;2023-12-20T07:25:07;12.25;;;1.70;;
14736;SDS011;7459;53.590;10.062;2023-12-20T07:27:33;13.18;;;1.67;;
14736;SDS011;7459;53.590;10.062;2023-12-20T07:29:58;11.20;;;1.42;;
14736;SDS011;7459;53.590;10.062;2023-12-20T07:32:24;7.13;;;1.33;;
14736;SDS011;7459;53.590;10.062;2023-12-20T07:34:50;14.18;;;1.40;;
14736;SDS011;7459;53.590;10.062;2023-12-20T07:37:16;12.98;;;2.00;;
14736;SDS011;7459;53.590;10.062;2023-12-20T07:39:41;11.55;;;1.80;;
14736;SDS011;7459;53.590;10.062;2023-12-20T07:42:08;9.82;;;2.22;;
14736;SDS011;7459;53.590;10.062;2023-12-20T07:44:34;12.80;;;1.30;;
14736;SDS011;7459;53.590;10.062;2023-12-20T07:47:00;14.45;;;2.33;;
14736;SDS011;7459;53.590;10.062;2023-12-20T07:49:27;8.98;;;1.20;;
14736;SDS011;7459;53.590;10.062;2023-12-20T07:51:52;10.98;;;1.50;;
14736;SDS011;7459;53.590;10.062;2023-12-20T07:54:18;13.93;;;1.57;;
14736;SDS011;7459;53.590;10.062;2023-12-20T07:56:45;11.30;;;1.60;;
14736;SDS011;7459;53.590;10.062;2023-12-20T07:59:11;9.30;;;1.70;;
14736;SDS011;7459;53.590;10.062;2023-12-20T08:01:37;9.10;;;1.27;;
14736;SDS011;7459;53.590;10.062;2023-12-20T08:04:03;11.25;;;1.38;;
14736;SDS011;7459;53.590;10.062;2023-12-20T08:06:29;13.00;;;1.70;;
14736;SDS011;7459;53.590;10.062;2023-12-20T08:08:54;14.48;;;2.03;;
14736;SDS011;7459;53.590;10.062;2023-12-20T08:11:20;9.80;;;1.17;;
14736;SDS011;7459;53.590;10.062;2023-12-20T08:13:46;8.90;;;1.58;;
14736;SDS011;7459;53.590;10.062;2023-12-20T08:16:11;14.33;;;1.93;;
14736;SDS011;7459;53.590;10.062;2023-12-20T08:18:38;13.55;;;1.85;;
14736;SDS011;7459;53.590;10.062;2023-12-20T08:21:04;17.15;;;2.15;;
14736;SDS011;7459;53.590;10.062;2023-12-20T08:23:33;12.45;;;1.52;;
14736;SDS011;7459;53.590;10.062;2023-12-20T08:26:03;13.30;;;1.52;;
14736;SDS011;7459;53.590;10.062;2023-12-20T08:28:33;11.32;;;1.58;;
14736;SDS011;7459;53.590;10.062;2023-12-20T08:30:59;13.98;;;2.03;;
14736;SDS011;7459;53.590;10.062;2023-12-20T08:33:25;9.25;;;1.75;;
14736;SDS011;7459;53.590;10.062;2023-12-20T08:35:51;13.47;;;1.37;;
14736;SDS011;7459;53.590;10.062;2023-12-20T08:38:16;16.42;;;2.03;;
14736;SDS011;7459;53.590;10.062;2023-12-20T08:40:42;10.75;;;2.15;;
14736;SDS011;7459;53.590;10.062;2023-12-20T08:43:09;15.07;;;1.95;;
14736;SDS011;7459;53.590;10.062;2023-12-20T08:45:34;12.07;;;1.20;;
14736;SDS011;7459;53.590;10.062;2023-12-20T08:48:00;13.13;;;1.60;;
14736;SDS011;7459;53.590;10.062;2023-12-20T08:50:26;14.90;;;1.48;;
14736;SDS011;7459;53.590;10.062;2023-12-20T08:52:52;7.77;;;1.03;;
14736;SDS011;7459;53.590;10.062;2023-12-20T08:55:18;10.98;;;1.42;;
14736;SDS011;7459;53.590;10.062;2023-12-20T08:57:44;13.57;;;2.03;;
14736;SDS011;7459;53.590;10.062;2023-12-20T09:00:10;14.13;;;2.07;;
14736;SDS011;7459;53.590;10.062;2023-12-20T09:02:36;11.35;;;1.88;;
14736;SDS011;7459;53.590;10.062;2023-12-20T09:05:02;10.30;;;1.73;;
14736;SDS011;7459;53.590;10.062;2023-12-20T09:07:28;13.17;;;1.87;;
14736;SDS011;7459;53.590;10.062;2023-12-20T09:09:58;8.18;;;1.45;;
14736;SDS011;7459;53.590;10.062;2023-12-20T09:12:23;10.50;;;2.33;;
14736;SDS011;7459;53.590;10.062;2023-12-20T09:14:50;9.40;;;1.33;;
14736;SDS011;7459;53.590;10.062;2023-12-20T09:17:17;7.30;;;1.38;;
14736;SDS011;7459;53.590;10.062;2023-12-20T09:19:43;9.23;;;1.37;;
14736;SDS011;7459;53.590;10.062;2023-12-20T09:22:09;9.65;;;1.13;;
14736;SDS011;7459;53.590;10.062;2023-12-20T09:24:35;8.63;;;1.10;;
14736;SDS011;7459;53.590;10.062;2023-12-20T09:27:01;10.35;;;1.00;;
14736;SDS011;7459;53.590;10.062;2023-12-20T09:29:27;4.43;;;0.85;;
14736;SDS011;7459;53.590;10.062;2023-12-20T09:31:54;6.93;;;0.75;;
14736;SDS011;7459;53.590;10.062;2023-12-20T09:34:20;8.25;;;0.85;;
14736;SDS011;7459;53.590;10.062;2023-12-20T09:36:46;5.80;;;0.93;;
14736;SDS011;7459;53.590;10.062;2023-12-20T09:39:16;4.13;;;0.70;;
14736;SDS011;7459;53.590;10.062;2023-12-20T09:41:51;4.85;;;0.65;;
14736;SDS011;7459;53.590;10.062;2023-12-20T09:44:29;1.80;;;0.50;;
14736;SDS011;7459;53.590;10.062;2023-12-20T09:46:56;2.75;;;0.52;;
14736;SDS011;7459;53.590;10.062;2023-12-20T09:49:22;2.57;;;0.50;;
14736;SDS011;7459;53.590;10.062;2023-12-20T09:51:50;1.88;;;0.30;;
14736;SDS011;7459;53.590;10.062;2023-12-20T09:54:17;1.45;;;0.40;;
14736;SDS011;7459;53.590;10.062;2023-12-20T09:56:46;5.55;;;0.32;;
14736;SDS011;7459;53.590;10.062;2023-12-20T09:59:12;3.90;;;0.50;;
14736;SDS011;7459;53.590;10.062;2023-12-20T10:01:42;2.57;;;0.20;;
14736;SDS011;7459;53.590;10.062;2023-12-20T10:04:09;2.60;;;0.40;;
14736;SDS011;7459;53.590;10.062;2023-12-20T10:06:43;3.65;;;0.40;;
14736;SDS011;7459;53.590;10.062;2023-12-20T10:09:10;1.80;;;0.50;;
14736;SDS011;7459;53.590;10.062;2023-12-20T10:11:37;6.20;;;0.68;;
14736;SDS011;7459;53.590;10.062;2023-12-20T10:14:04;1.93;;;0.23;;
14736;SDS011;7459;53.590;10.062;2023-12-20T10:16:31;3.78;;;0.60;;
14736;SDS011;7459;53.590;10.062;2023-12-20T10:18:58;3.75;;;0.30;;
14736;SDS011;7459;53.590;10.062;2023-12-20T10:21:25;3.00;;;0.30;;
14736;SDS011;7459;53.590;10.062;2023-12-20T10:23:51;3.05;;;0.40;;
14736;SDS011;7459;53.590;10.062;2023-12-20T10:26:19;5.40;;;0.60;;
14736;SDS011;7459;53.590;10.062;2023-12-20T10:28:55;4.30;;;0.40;;
14736;SDS011;7459;53.590;10.062;2023-12-20T10:31:25;3.35;;;0.77;;
14736;SDS011;7459;53.590;10.062;2023-12-20T10:33:56;6.75;;;0.45;;
14736;SDS011;7459;53.590;10.062;2023-12-20T10:36:24;3.05;;;0.40;;
14736;SDS011;7459;53.590;10.062;2023-12-20T10:38:55;2.07;;;0.20;;
14736;SDS011;7459;53.590;10.062;2023-12-20T10:41:32;3.35;;;0.50;;
14736;SDS011;7459;53.590;10.062;2023-12-20T10:44:02;3.83;;;0.38;;
14736;SDS011;7459;53.590;10.062;2023-12-20T10:46:30;2.78;;;0.60;;
14736;SDS011;7459;53.590;10.062;2023-12-20T10:48:57;4.22;;;0.60;;
14736;SDS011;7459;53.590;10.062;2023-12-20T10:51:23;2.50;;;0.30;;
14736;SDS011;7459;53.590;10.062;2023-12-20T10:53:51;1.83;;;0.30;;
14736;SDS011;7459;53.590;10.062;2023-12-20T10:56:18;2.40;;;0.35;;
14736;SDS011;7459;53.590;10.062;2023-12-20T10:58:46;7.38;;;0.50;;
14736;SDS011;7459;53.590;10.062;2023-12-20T11:01:13;3.58;;;0.40;;
14736;SDS011;7459;53.590;10.062;2023-12-20T11:03:42;4.70;;;0.67;;
14736;SDS011;7459;53.590;10.062;2023-12-20T11:09:23;7.38;;;1.00;;
14736;SDS011;7459;53.590;10.062;2023-12-20T11:14:37;3.20;;;0.70;;
14736;SDS011;7459;53.590;10.062;2023-12-20T11:17:14;5.40;;;0.70;;
14736;SDS011;7459;53.590;10.062;2023-12-20T11:22:26;7.78;;;0.70;;
14736;SDS011;7459;53.590;10.062;2023-12-20T11:25:02;6.53;;;0.55;;
14736;SDS011;7459;53.590;10.062;2023-12-20T11:27:33;4.85;;;0.60;;
14736;SDS011;7459;53.590;10.062;2023-12-20T11:29:59;4.03;;;0.40;;
14736;SDS011;7459;53.590;10.062;2023-12-20T11:32:35;3.40;;;0.47;;
14736;SDS011;7459;53.590;10.062;2023-12-20T11:37:37;5.03;;;0.30;;
14736;SDS011;7459;53.590;10.062;2023-12-20T11:40:08;3.58;;;0.52;;
14736;SDS011;7459;53.590;10.062;2023-12-20T11:42:40;6.20;;;0.40;;
14736;SDS011;7459;53.590;10.062;2023-12-20T11:45:15;3.58;;;0.30;;
14736;SDS011;7459;53.590;10.062;2023-12-20T11:47:49;7.13;;;1.02;;
14736;SDS011;7459;53.590;10.062;2023-12-20T11:50:20;6.80;;;1.65;;
14736;SDS011;7459;53.590;10.062;2023-12-20T11:52:47;7.70;;;0.70;;
14736;SDS011;7459;53.590;10.062;2023-12-20T11:55:14;6.47;;;0.87;;
14736;SDS011;7459;53.590;10.062;2023-12-20T11:57:41;11.25;;;1.02;;
14736;SDS011;7459;53.590;10.062;2023-12-20T12:00:08;7.55;;;1.15;;
14736;SDS011;7459;53.590;10.062;2023-12-20T12:02:35;10.77;;;1.45;;
14736;SDS011;7459;53.590;10.062;2023-12-20T12:05:00;9.23;;;1.30;;
14736;SDS011;7459;53.590;10.062;2023-12-20T12:07:27;5.03;;;0.80;;
14736;SDS011;7459;53.590;10.062;2023-12-20T12:09:52;10.53;;;1.57;;
14736;SDS011;7459;53.590;10.062;2023-12-20T12:12:19;7.72;;;0.70;;
14736;SDS011;7459;53.590;10.062;2023-12-20T12:14:45;6.43;;;0.80;;
14736;SDS011;7459;53.590;10.062;2023-12-20T12:17:14;10.27;;;0.82;;
14736;SDS011;7459;53.590;10.062;2023-12-20T12:19:41;6.87;;;0.87;;
14736;SDS011;7459;53.590;10.062;2023-12-20T12:22:12;7.45;;;1.27;;
14736;SDS011;7459;53.590;10.062;2023-12-20T12:24:40;10.77;;;1.10;;
14736;SDS011;7459;53.590;10.062;2023-12-20T12:27:10;9.75;;;1.35;;
14736;SDS011;7459;53.590;10.062;2023-12-20T12:29:37;10.25;;;0.88;;
14736;SDS011;7459;53.590;10.062;2023-12-20T12:32:07;10.13;;;1.33;;
14736;SDS011;7459;53.590;10.062;2023-12-20T12:34:34;9.38;;;0.98;;
14736;SDS011;7459;53.590;10.062;2023-12-20T12:37:01;11.18;;;0.90;;
14736;SDS011;7459;53.590;10.062;2023-12-20T12:39:28;8.18;;;1.23;;
14736;SDS011;7459;53.590;10.062;2023-12-20T12:41:55;10.65;;;1.25;;
14736;SDS011;7459;53.590;10.062;2023-12-20T12:44:22;12.23;;;1.27;;
14736;SDS011;7459;53.590;10.062;2023-12-20T12:46:50;14.32;;;1.48;;
14736;SDS011;7459;53.590;10.062;2023-12-20T12:49:16;14.10;;;1.60;;
14736;SDS011;7459;53.590;10.062;2023-12-20T12:51:42;10.90;;;1.52;;
14736;SDS011;7459;53.590;10.062;2023-12-20T12:54:09;13.88;;;1.92;;
14736;SDS011;7459;53.590;10.062;2023-12-20T12:56:35;14.20;;;1.33;;
14736;SDS011;7459;53.590;10.062;2023-12-20T12:59:02;10.15;;;1.30;;
14736;SDS011;7459;53.590;10.062;2023-12-20T13:01:27;10.43;;;1.63;;
14736;SDS011;7459;53.590;10.062;2023-12-20T13:03:53;9.07;;;1.17;;
14736;SDS011;7459;53.590;10.062;2023-12-20T13:06:19;8.18;;;0.90;;
14736;SDS011;7459;53.590;10.062;2023-12-20T13:08:45;6.57;;;1.07;;
14736;SDS011;7459;53.590;10.062;2023-12-20T13:11:11;9.95;;;0.80;;
14736;SDS011;7459;53.590;10.062;2023-12-20T13:13:36;14.45;;;1.65;;
14736;SDS011;7459;53.590;10.062;2023-12-20T13:16:02;13.23;;;1.10;;
14736;SDS011;7459;53.590;10.062;2023-12-20T13:18:29;11.05;;;1.13;;
14736;SDS011;7459;53.590;10.062;2023-12-20T13:20:54;6.47;;;1.30;;
14736;SDS011;7459;53.590;10.062;2023-12-20T13:23:20;15.55;;;1.58;;
14736;SDS011;7459;53.590;10.062;2023-12-20T13:25:46;10.27;;;1.30;;
14736;SDS011;7459;53.590;10.062;2023-12-20T13:28:11;8.95;;;1.33;;
14736;SDS011;7459;53.590;10.062;2023-12-20T13:30:38;10.93;;;2.28;;
14736;SDS011;7459;53.590;10.062;2023-12-20T13:33:04;11.43;;;1.10;;
14736;SDS011;7459;53.590;10.062;2023-12-20T13:35:30;10.43;;;1.23;;
14736;SDS011;7459;53.590;10.062;2023-12-20T13:37:57;12.52;;;2.15;;
14736;SDS011;7459;53.590;10.062;2023-12-20T13:40:26;13.98;;;1.38;;
14736;SDS011;7459;53.590;10.062;2023-12-20T13:42:51;9.37;;;1.43;;
14736;SDS011;7459;53.590;10.062;2023-12-20T13:45:17;13.02;;;1.88;;
14736;SDS011;7459;53.590;10.062;2023-12-20T13:47:43;10.45;;;2.03;;
14736;SDS011;7459;53.590;10.062;2023-12-20T13:50:09;16.58;;;2.10;;
14736;SDS011;7459;53.590;10.062;2023-12-20T13:52:35;13.93;;;1.75;;
14736;SDS011;7459;53.590;10.062;2023-12-20T13:55:01;10.97;;;2.00;;
14736;SDS011;7459;53.590;10.062;2023-12-20T13:57:27;12.98;;;2.05;;
14736;SDS011;7459;53.590;10.062;2023-12-20T13:59:54;21.85;;;2.17;;
14736;SDS011;7459;53.590;10.062;2023-12-20T14:02:22;16.10;;;2.33;;
14736;SDS011;7459;53.590;10.062;2023-12-20T14:04:47;15.87;;;2.60;;
14736;SDS011;7459;53.590;10.062;2023-12-20T14:07:13;14.68;;;2.42;;
14736;SDS011;7459;53.590;10.062;2023-12-20T14:09:39;13.80;;;2.10;;
14736;SDS011;7459;53.590;10.062;2023-12-20T14:12:10;15.85;;;1.88;;
14736;SDS011;7459;53.590;10.062;2023-12-20T14:14:36;16.90;;;2.63;;
14736;SDS011;7459;53.590;10.062;2023-12-20T14:17:02;12.82;;;2.70;;
14736;SDS011;7459;53.590;10.062;2023-12-20T14:19:29;16.93;;;2.17;;
14736;SDS011;7459;53.590;10.062;2023-12-20T14:21:54;9.73;;;1.83;;
14736;SDS011;7459;53.590;10.062;2023-12-20T14:24:20;15.20;;;2.33;;
14736;SDS011;7459;53.590;10.062;2023-12-20T14:26:46;13.75;;;2.47;;
14736;SDS011;7459;53.590;10.062;2023-12-20T14:29:11;20.50;;;3.47;;
14736;SDS011;7459;53.590;10.062;2023-12-20T14:31:37;14.35;;;2.25;;
14736;SDS011;7459;53.590;10.062;2023-12-20T14:34:04;8.07;;;2.20;;
14736;SDS011;7459;53.590;10.062;2023-12-20T14:36:29;14.85;;;1.70;;
14736;SDS011;7459;53.590;10.062;2023-12-20T14:38:56;10.55;;;2.00;;
14736;SDS011;7459;53.590;10.062;2023-12-20T14:41:22;16.08;;;2.55;;
14736;SDS011;7459;53.590;10.062;2023-12-20T14:43:49;11.95;;;2.10;;
14736;SDS011;7459;53.590;10.062;2023-12-20T14:46:17;13.52;;;1.88;;
14736;SDS011;7459;53.590;10.062;2023-12-20T14:48:42;19.80;;;2.33;;
14736;SDS011;7459;53.590;10.062;2023-12-20T14:51:08;10.73;;;1.93;;